TimeEDT,TemperatureF,Dew PointF,Humidity,Sea Level PressureIn,VisibilityMPH,Wind Direction,Wind SpeedMPH,Gust SpeedMPH,PrecipitationIn,Events,Conditions,WindDirDegrees,DateUTC
12:14 AM,53.6,53.6,100,30.19,4.0,Calm,Calm,-,N/A,,Clear,0,2013-07-30 04:14:00
12:35 AM,53.6,53.6,100,30.19,10.0,Calm,Calm,-,N/A,,Clear,0,2013-07-30 04:35:00
12:55 AM,53.6,53.6,100,30.20,10.0,Calm,Calm,-,N/A,,Clear,0,2013-07-30 04:55:00
1:14 AM,53.6,53.6,100,30.20,3.0,Calm,Calm,-,N/A,,Clear,0,2013-07-30 05:14:00
1:35 AM,53.6,51.8,94,30.20,7.0,Calm,Calm,-,N/A,,Clear,0,2013-07-30 05:35:00
1:55 AM,53.6,51.8,94,30.20,1.8,Calm,Calm,-,N/A,,Mist,0,2013-07-30 05:55:00
2:14 AM,51.8,51.8,100,30.20,3.0,Calm,Calm,-,N/A,,Clear,0,2013-07-30 06:14:00
2:35 AM,51.8,51.8,100,30.20,4.0,Calm,Calm,-,N/A,,Clear,0,2013-07-30 06:35:00
2:55 AM,51.8,51.8,100,30.20,7.0,Calm,Calm,-,N/A,,Clear,0,2013-07-30 06:55:00
3:14 AM,51.8,51.8,100,30.20,0.8,Calm,Calm,-,N/A,,Mist,0,2013-07-30 07:14:00
3:35 AM,51.8,51.8,100,30.20,10.0,Calm,Calm,-,N/A,,Clear,0,2013-07-30 07:35:00
3:55 AM,50.0,50.0,100,30.20,1.8,Calm,Calm,-,N/A,,Mist,0,2013-07-30 07:55:00
4:14 AM,50.0,50.0,100,30.20,5.0,Calm,Calm,-,N/A,,Clear,0,2013-07-30 08:14:00
4:35 AM,51.8,51.8,100,30.21,5.0,Calm,Calm,-,N/A,,Clear,0,2013-07-30 08:35:00
4:55 AM,51.8,51.8,100,30.21,7.0,Calm,Calm,-,N/A,,Clear,0,2013-07-30 08:55:00
5:14 AM,53.6,51.8,94,30.20,7.0,Calm,Calm,-,N/A,,Clear,0,2013-07-30 09:14:00
5:35 AM,51.8,51.8,100,30.20,7.0,Calm,Calm,-,N/A,,Clear,0,2013-07-30 09:35:00
5:55 AM,51.8,51.8,100,30.21,7.0,Calm,Calm,-,N/A,,Clear,0,2013-07-30 09:55:00
6:14 AM,53.6,53.6,100,30.21,10.0,Calm,Calm,-,N/A,,Clear,0,2013-07-30 10:14:00
6:35 AM,51.8,51.8,100,30.21,10.0,Calm,Calm,-,N/A,,Clear,0,2013-07-30 10:35:00
6:55 AM,53.6,51.8,94,30.21,10.0,Calm,Calm,-,N/A,,Clear,0,2013-07-30 10:55:00
7:14 AM,53.6,51.8,94,30.21,10.0,Calm,Calm,-,N/A,,Clear,0,2013-07-30 11:14:00
7:35 AM,55.4,53.6,94,30.22,10.0,Calm,Calm,-,N/A,,Clear,0,2013-07-30 11:35:00
7:55 AM,57.2,55.4,94,30.22,10.0,Calm,Calm,-,N/A,,Clear,0,2013-07-30 11:55:00
8:14 AM,57.2,55.4,94,30.22,10.0,Calm,Calm,-,N/A,,Clear,0,2013-07-30 12:14:00
8:35 AM,60.8,55.4,82,30.23,10.0,Calm,Calm,-,N/A,,Clear,0,2013-07-30 12:35:00
8:55 AM,60.8,57.2,88,30.23,10.0,Calm,Calm,-,N/A,,Clear,0,2013-07-30 12:55:00
9:14 AM,62.6,57.2,82,30.23,10.0,Calm,Calm,-,N/A,,Clear,0,2013-07-30 13:14:00
9:35 AM,64.4,59.0,83,30.23,10.0,Calm,Calm,-,N/A,,Clear,0,2013-07-30 13:35:00
9:54 AM,66.2,59.0,78,30.23,10.0,Calm,Calm,-,N/A,,Clear,0,2013-07-30 13:54:00
10:15 AM,66.2,60.8,83,30.22,10.0,Calm,Calm,-,N/A,,Clear,0,2013-07-30 14:15:00
10:34 AM,68.0,60.8,78,30.22,10.0,Calm,Calm,-,N/A,,Clear,0,2013-07-30 14:34:00
10:55 AM,69.8,60.8,73,30.21,10.0,Calm,Calm,-,N/A,,Clear,0,2013-07-30 14:55:00
11:15 AM,69.8,60.8,73,30.21,10.0,Calm,Calm,-,N/A,,Clear,0,2013-07-30 15:15:00
11:34 AM,71.6,60.8,69,30.21,10.0,SW,4.6,-,N/A,,Clear,230,2013-07-30 15:34:00
11:55 AM,73.4,60.8,65,30.21,10.0,WSW,3.5,-,N/A,,Clear,240,2013-07-30 15:55:00
12:15 PM,73.4,59.0,61,30.21,10.0,WSW,3.5,-,N/A,,Clear,250,2013-07-30 16:15:00
12:34 PM,73.4,60.8,65,30.21,10.0,SSW,4.6,-,N/A,,Clear,210,2013-07-30 16:34:00
12:55 PM,73.4,60.8,65,30.20,10.0,SSW,4.6,-,N/A,,Scattered Clouds,200,2013-07-30 16:55:00
1:14 PM,75.2,60.8,61,30.20,10.0,Calm,Calm,-,N/A,,Scattered Clouds,0,2013-07-30 17:14:00
1:34 PM,75.2,57.2,53,30.19,10.0,Calm,Calm,-,N/A,,Clear,0,2013-07-30 17:34:00
1:55 PM,75.2,57.2,53,30.18,10.0,Calm,Calm,-,N/A,,Clear,0,2013-07-30 17:55:00
2:15 PM,75.2,57.2,53,30.18,10.0,Calm,Calm,-,N/A,,Scattered Clouds,0,2013-07-30 18:15:00
2:35 PM,73.4,57.2,57,30.18,10.0,South,4.6,-,N/A,,Scattered Clouds,180,2013-07-30 18:35:00
2:55 PM,75.2,59.0,57,30.17,10.0,SW,6.9,-,N/A,,Mostly Cloudy,230,2013-07-30 18:55:00
3:15 PM,73.4,57.2,57,30.17,10.0,SSW,6.9,-,N/A,,Scattered Clouds,210,2013-07-30 19:15:00
3:35 PM,75.2,57.2,53,30.17,10.0,West,5.8,-,N/A,,Scattered Clouds,260,2013-07-30 19:35:00
3:55 PM,75.2,57.2,53,30.16,10.0,South,4.6,-,N/A,,Mostly Cloudy,170,2013-07-30 19:55:00
4:14 PM,73.4,59.0,61,30.15,10.0,SW,4.6,-,N/A,,Scattered Clouds,230,2013-07-30 20:14:00
4:35 PM,75.2,57.2,53,30.15,10.0,South,4.6,-,N/A,,Clear,190,2013-07-30 20:35:00
4:55 PM,73.4,59.0,61,30.15,10.0,South,3.5,-,N/A,,Clear,180,2013-07-30 20:55:00
5:14 PM,73.4,59.0,61,30.14,10.0,SSW,3.5,-,N/A,,Scattered Clouds,200,2013-07-30 21:14:00
5:35 PM,73.4,59.0,61,30.14,10.0,Calm,Calm,-,N/A,,Scattered Clouds,0,2013-07-30 21:35:00
5:55 PM,73.4,60.8,65,30.14,10.0,Calm,Calm,-,N/A,,Scattered Clouds,0,2013-07-30 21:55:00
6:14 PM,73.4,60.8,65,30.14,10.0,Calm,Calm,-,N/A,,Clear,0,2013-07-30 22:14:00
6:35 PM,73.4,60.8,65,30.13,10.0,Calm,Calm,-,N/A,,Scattered Clouds,0,2013-07-30 22:35:00
6:55 PM,73.4,60.8,65,30.13,10.0,Calm,Calm,-,N/A,,Scattered Clouds,0,2013-07-30 22:55:00
7:14 PM,73.4,60.8,65,30.13,10.0,WSW,4.6,-,N/A,,Scattered Clouds,240,2013-07-30 23:14:00
7:35 PM,73.4,60.8,65,30.13,10.0,Calm,Calm,-,N/A,,Scattered Clouds,0,2013-07-30 23:35:00
7:55 PM,73.4,62.6,69,30.14,10.0,Calm,Calm,-,N/A,,Mostly Cloudy,0,2013-07-30 23:55:00
8:14 PM,71.6,62.6,73,30.14,10.0,Calm,Calm,-,N/A,,Overcast,0,2013-07-31 00:14:00
8:35 PM,71.6,62.6,73,30.14,10.0,Calm,Calm,-,N/A,,Overcast,0,2013-07-31 00:35:00
8:55 PM,71.6,62.6,73,30.13,10.0,Calm,Calm,-,N/A,,Overcast,0,2013-07-31 00:55:00
9:14 PM,69.8,60.8,73,30.13,10.0,Calm,Calm,-,N/A,,Overcast,0,2013-07-31 01:14:00
9:35 PM,69.8,60.8,73,30.13,10.0,Calm,Calm,-,N/A,,Overcast,0,2013-07-31 01:35:00
9:55 PM,69.8,60.8,73,30.13,10.0,Calm,Calm,-,N/A,,Overcast,0,2013-07-31 01:55:00
10:14 PM,69.8,60.8,73,30.13,10.0,Calm,Calm,-,N/A,,Overcast,0,2013-07-31 02:14:00
10:35 PM,69.8,62.6,78,30.14,10.0,Calm,Calm,-,N/A,,Overcast,0,2013-07-31 02:35:00
10:54 PM,68.0,62.6,83,30.13,10.0,Calm,Calm,-,N/A,,Scattered Clouds,0,2013-07-31 02:54:00
11:15 PM,69.8,62.6,78,30.13,10.0,Calm,Calm,-,N/A,,Scattered Clouds,0,2013-07-31 03:15:00
11:35 PM,68.0,62.6,83,30.13,10.0,Calm,Calm,-,N/A,,Scattered Clouds,0,2013-07-31 03:35:00
11:54 PM,66.2,62.6,88,30.12,10.0,Calm,Calm,-,N/A,,Clear,0,2013-07-31 03:54:00